Time;durP1;ratioP1;P1;durP2;ratioP2;P2;SDS_P1;SDS_P2;PMS_P1;PMS_P2;Temp;Humidity;BMP_temperature;BMP_pressure;BME280_temperature;BME280_humidity;BME280_pressure;Samples;Min_cycle;Max_cycle;Signal;HPM_P1;HPM_P2
2022/09/18 00:01:38;;;;;;;13.73;1.50;;;8.80;99.90;;;;;;5031487;28;20053;-75
2022/09/18 00:04:07;;;;;;;8.05;1.20;;;8.80;99.90;;;;;;5030571;28;20049;-75
2022/09/18 00:06:37;;;;;;;14.05;1.88;;;8.80;99.90;;;;;;5029934;28;20041;-72
2022/09/18 00:09:05;;;;;;;12.20;1.25;;;8.80;99.90;;;;;;5031357;28;20103;-76
2022/09/18 00:11:35;;;;;;;7.63;1.05;;;8.80;99.90;;;;;;5031081;28;20084;-76
2022/09/18 00:14:01;;;;;;;12.00;1.58;;;8.90;99.90;;;;;;5030797;28;20046;-73
2022/09/18 00:16:27;;;;;;;10.43;1.42;;;8.90;99.90;;;;;;5030026;28;20554;-75
2022/09/18 00:18:53;;;;;;;14.43;1.60;;;8.90;99.90;;;;;;5030529;28;20049;-74
2022/09/18 00:21:22;;;;;;;18.52;1.98;;;9.00;99.90;;;;;;5030765;28;20053;-74
2022/09/18 00:23:49;;;;;;;14.00;1.75;;;9.00;99.90;;;;;;5030455;28;20048;-75
2022/09/18 00:26:16;;;;;;;14.18;1.38;;;9.10;99.90;;;;;;5030672;28;20037;-75
2022/09/18 00:28:43;;;;;;;16.08;1.52;;;9.10;99.90;;;;;;5030474;28;20196;-76
2022/09/18 00:31:16;;;;;;;5.47;0.98;;;9.20;99.90;;;;;;5030400;28;20475;-75
2022/09/18 00:33:42;;;;;;;14.77;1.70;;;9.20;99.90;;;;;;5030068;28;20061;-76
2022/09/18 00:36:12;;;;;;;12.95;2.03;;;9.20;99.90;;;;;;5030684;28;20140;-74
2022/09/18 00:38:37;;;;;;;9.95;1.45;;;9.20;99.90;;;;;;5030835;28;20134;-76
2022/09/18 00:41:06;;;;;;;9.65;1.20;;;9.20;99.90;;;;;;5030601;28;20512;-75
2022/09/18 00:43:34;;;;;;;11.30;1.75;;;9.20;99.90;;;;;;5030238;28;20041;-75
2022/09/18 00:46:19;;;;;;;13.65;1.35;;;9.20;99.90;;;;;;5029917;28;20045;-75
2022/09/18 00:49:18;;;;;;;10.25;1.45;;;9.20;99.90;;;;;;5030474;28;20076;-75
2022/09/18 00:51:46;;;;;;;11.40;1.33;;;9.20;99.90;;;;;;4991533;28;20058;-75
2022/09/18 00:54:21;;;;;;;6.07;1.20;;;9.10;99.90;;;;;;5006364;28;20859;-75
2022/09/18 00:56:51;;;;;;;8.07;0.88;;;9.10;99.90;;;;;;5008050;28;20124;-74
2022/09/18 00:59:25;;;;;;;12.40;1.20;;;9.10;99.90;;;;;;5008057;28;20049;-75
2022/09/18 01:01:51;;;;;;;10.23;1.40;;;9.20;99.90;;;;;;5007191;28;20157;-76
2022/09/18 01:04:17;;;;;;;10.07;1.60;;;9.20;99.90;;;;;;5006207;28;20049;-75
2022/09/18 01:07:07;;;;;;;11.90;1.55;;;9.30;99.90;;;;;;5007411;28;20484;-74
2022/09/18 01:09:48;;;;;;;13.18;1.48;;;9.30;99.90;;;;;;5007842;28;20052;-74
2022/09/18 01:12:21;;;;;;;15.55;1.80;;;9.40;99.90;;;;;;5007941;28;20041;-73
2022/09/18 01:15:04;;;;;;;11.85;1.33;;;9.50;99.90;;;;;;4989653;28;20153;-77
2022/09/18 01:17:37;;;;;;;15.48;1.48;;;9.50;99.90;;;;;;5007461;28;20050;-75
2022/09/18 01:20:36;;;;;;;18.83;1.75;;;9.60;99.90;;;;;;5007543;28;20505;-74
2022/09/18 01:23:13;;;;;;;19.02;2.22;;;9.70;99.90;;;;;;5007518;28;20137;-76
2022/09/18 01:26:01;;;;;;;12.88;1.70;;;9.70;99.90;;;;;;5006061;28;20046;-72
2022/09/18 01:28:55;;;;;;;7.22;1.60;;;9.70;99.90;;;;;;5024247;28;20053;-73
2022/09/18 01:31:47;;;;;;;11.10;1.50;;;9.70;99.90;;;;;;5010003;28;20050;-74
2022/09/18 01:34:22;;;;;;;14.05;1.50;;;9.70;99.90;;;;;;4972578;28;20564;-74
2022/09/18 01:36:52;;;;;;;14.07;1.20;;;9.70;99.90;;;;;;4993257;28;20065;-73
2022/09/18 01:39:26;;;;;;;13.93;2.38;;;9.70;99.90;;;;;;4991778;28;20050;-74
2022/09/18 01:41:54;;;;;;;13.60;1.80;;;9.70;99.90;;;;;;4991733;28;20050;-75
2022/09/18 01:44:25;;;;;;;11.10;1.50;;;9.70;99.90;;;;;;5006118;28;20050;-74
2022/09/18 01:46:52;;;;;;;16.80;1.52;;;9.70;99.90;;;;;;5009297;28;20154;-75
2022/09/18 01:49:22;;;;;;;11.70;1.52;;;9.60;99.90;;;;;;5004475;28;20042;-74
2022/09/18 01:51:59;;;;;;;8.00;1.35;;;9.70;99.90;;;;;;4992580;28;20509;-72
2022/09/18 01:54:29;;;;;;;13.50;1.67;;;9.70;99.90;;;;;;4991491;28;20097;-74
2022/09/18 01:57:01;;;;;;;15.13;1.63;;;9.70;99.90;;;;;;4992265;28;20728;-75
2022/09/18 01:59:36;;;;;;;7.90;1.42;;;9.70;99.90;;;;;;4997815;28;20123;-75
2022/09/18 02:02:06;;;;;;;9.02;1.20;;;9.70;99.90;;;;;;4992141;28;20046;-77
2022/09/18 02:04:36;;;;;;;16.55;1.58;;;9.60;99.90;;;;;;4990678;28;20080;-75
2022/09/18 02:07:32;;;;;;;14.02;1.70;;;9.60;99.90;;;;;;4994641;28;20034;-71
2022/09/18 02:09:58;;;;;;;12.90;1.70;;;9.60;99.90;;;;;;5010346;28;20050;-74
2022/09/18 02:12:27;;;;;;;10.05;1.70;;;9.60;99.90;;;;;;5030749;28;20106;-74
2022/09/18 02:14:57;;;;;;;15.52;1.60;;;9.60;99.90;;;;;;5032688;28;20182;-75
2022/09/18 02:17:34;;;;;;;10.10;1.48;;;9.60;99.90;;;;;;5032102;28;20496;-76
2022/09/18 02:20:08;;;;;;;9.77;1.70;;;9.70;99.90;;;;;;5032113;28;20092;-74
2022/09/18 02:22:35;;;;;;;12.85;1.80;;;9.70;99.90;;;;;;5032271;28;20060;-74
2022/09/18 02:25:04;;;;;;;11.75;1.42;;;9.70;99.90;;;;;;5032293;28;20088;-74
2022/09/18 02:27:33;;;;;;;14.20;1.40;;;9.70;99.90;;;;;;5030712;28;20512;-74
2022/09/18 02:30:01;;;;;;;17.45;1.52;;;9.70;99.90;;;;;;5044030;28;20064;-74
2022/09/18 02:32:27;;;;;;;12.85;1.70;;;9.80;99.90;;;;;;5050276;28;20453;-75
2022/09/18 02:34:53;;;;;;;11.13;1.42;;;9.70;99.90;;;;;;5051994;28;20041;-75
2022/09/18 02:37:44;;;;;;;8.50;1.23;;;9.90;99.90;;;;;;5050583;28;20056;-75
2022/09/18 02:40:29;;;;;;;14.88;1.25;;;9.70;99.90;;;;;;5049251;28;20052;-74
2022/09/18 02:43:17;;;;;;;12.90;1.52;;;9.70;99.90;;;;;;5048250;28;20083;-74
2022/09/18 02:45:42;;;;;;;9.70;1.33;;;9.70;99.90;;;;;;5033680;28;20408;-76
2022/09/18 02:48:21;;;;;;;15.65;1.35;;;9.80;99.90;;;;;;5030452;28;20042;-74
2022/09/18 02:51:15;;;;;;;11.80;1.33;;;9.80;99.90;;;;;;5012824;28;20049;-75
2022/09/18 02:53:49;;;;;;;11.52;1.35;;;9.80;99.90;;;;;;5030265;28;20061;-73
2022/09/18 02:56:30;;;;;;;15.55;1.45;;;9.80;99.90;;;;;;5031037;28;20064;-74
2022/09/18 02:59:10;;;;;;;12.05;1.13;;;9.90;99.90;;;;;;5032446;28;20056;-74
2022/09/18 03:01:41;;;;;;;13.38;1.90;;;9.90;99.90;;;;;;5032262;28;20052;-73
2022/09/18 03:04:11;;;;;;;14.75;1.73;;;9.90;99.90;;;;;;5027209;28;20175;-73
2022/09/18 03:06:37;;;;;;;10.13;1.48;;;9.90;99.90;;;;;;5032900;28;20064;-75
2022/09/18 03:09:02;;;;;;;16.23;2.53;;;10.00;99.90;;;;;;5032233;28;20560;-76
2022/09/18 03:11:28;;;;;;;14.20;1.38;;;10.00;99.90;;;;;;5033250;28;20044;-73
2022/09/18 03:13:54;;;;;;;11.35;1.60;;;10.00;99.90;;;;;;5030517;28;20057;-75
2022/09/18 03:16:19;;;;;;;8.25;1.10;;;10.00;99.90;;;;;;5032032;28;20050;-74
2022/09/18 03:18:45;;;;;;;11.60;1.33;;;10.00;99.90;;;;;;5031198;28;20129;-74
2022/09/18 03:21:11;;;;;;;12.20;1.58;;;10.00;99.90;;;;;;5031791;28;20865;-74
2022/09/18 03:23:36;;;;;;;12.55;1.25;;;10.00;99.90;;;;;;5044829;28;20048;-75
2022/09/18 03:26:02;;;;;;;9.52;1.17;;;10.00;99.90;;;;;;5032262;28;20049;-75
2022/09/18 03:28:30;;;;;;;7.60;0.90;;;10.00;99.90;;;;;;5030341;28;20055;-74
2022/09/18 03:30:56;;;;;;;9.85;1.10;;;10.00;99.90;;;;;;5032113;28;20046;-75
2022/09/18 03:33:22;;;;;;;7.47;1.05;;;10.00;99.90;;;;;;5049670;28;20541;-75
2022/09/18 03:35:47;;;;;;;10.10;1.30;;;10.00;99.90;;;;;;5051179;28;20049;-74
2022/09/18 03:38:14;;;;;;;5.95;1.08;;;10.00;99.90;;;;;;5042458;28;20083;-74
2022/09/18 03:40:43;;;;;;;10.80;1.20;;;10.00;99.90;;;;;;5031625;28;20519;-75
2022/09/18 03:43:09;;;;;;;5.20;0.77;;;10.00;99.90;;;;;;5032655;28;20045;-75
2022/09/18 03:45:35;;;;;;;6.32;0.80;;;10.00;99.90;;;;;;5031386;28;20033;-74
2022/09/18 03:48:01;;;;;;;10.82;1.00;;;10.00;99.90;;;;;;5031317;28;20451;-73
2022/09/18 03:50:27;;;;;;;8.23;0.82;;;10.00;99.90;;;;;;5043130;28;20120;-75
2022/09/18 03:52:53;;;;;;;7.45;1.00;;;10.00;99.90;;;;;;5043449;28;20103;-77
2022/09/18 03:55:19;;;;;;;9.13;0.80;;;10.00;99.90;;;;;;5032413;28;20045;-74
2022/09/18 03:57:45;;;;;;;8.60;1.00;;;10.00;99.90;;;;;;5030683;28;20044;-76
2022/09/18 04:00:12;;;;;;;7.40;0.90;;;9.90;99.90;;;;;;5031148;28;20046;-73
2022/09/18 04:02:38;;;;;;;6.63;0.88;;;9.90;99.90;;;;;;5043369;28;20404;-75
2022/09/18 04:05:04;;;;;;;6.95;0.80;;;9.90;99.90;;;;;;5048801;28;20044;-73
2022/09/18 04:07:30;;;;;;;9.48;1.20;;;9.90;99.90;;;;;;5049153;28;20451;-74
2022/09/18 04:09:55;;;;;;;7.45;1.23;;;9.90;99.90;;;;;;5050062;28;20045;-74
2022/09/18 04:12:21;;;;;;;9.60;1.13;;;9.80;99.90;;;;;;5039907;28;20124;-75
2022/09/18 04:14:47;;;;;;;6.13;0.90;;;9.80;99.90;;;;;;5031881;28;20049;-76
2022/09/18 04:17:13;;;;;;;4.47;0.90;;;9.80;99.90;;;;;;5031152;28;20133;-75
2022/09/18 04:19:39;;;;;;;5.45;0.93;;;9.90;99.90;;;;;;5030879;28;20045;-74
2022/09/18 04:22:04;;;;;;;6.38;0.77;;;9.80;99.90;;;;;;5030574;28;20045;-74
2022/09/18 04:24:30;;;;;;;9.88;1.30;;;9.70;99.90;;;;;;5030107;28;20094;-74
2022/09/18 04:26:55;;;;;;;7.45;0.90;;;10.10;99.90;;;;;;5030275;28;20099;-74
2022/09/18 04:29:21;;;;;;;7.72;1.15;;;9.80;99.90;;;;;;5031328;28;20053;-74
2022/09/18 04:31:47;;;;;;;4.80;0.82;;;9.80;99.90;;;;;;5050082;28;20124;-75
2022/09/18 04:34:13;;;;;;;13.23;1.60;;;9.80;99.90;;;;;;5049393;28;20199;-75
2022/09/18 04:36:39;;;;;;;4.68;0.70;;;9.80;99.90;;;;;;5048619;28;20366;-75
2022/09/18 04:39:04;;;;;;;9.73;0.90;;;9.80;99.90;;;;;;5035929;28;20041;-74
2022/09/18 04:41:30;;;;;;;11.38;1.35;;;9.80;99.90;;;;;;5028231;28;20148;-74
2022/09/18 04:43:56;;;;;;;9.38;0.90;;;9.90;99.90;;;;;;5040760;28;20045;-74
2022/09/18 04:46:21;;;;;;;7.57;1.00;;;9.90;99.90;;;;;;5035128;28;20041;-73
2022/09/18 04:48:48;;;;;;;9.93;1.27;;;9.90;99.90;;;;;;5029698;28;20053;-75
2022/09/18 04:51:14;;;;;;;10.05;1.20;;;9.90;99.90;;;;;;5048529;28;20370;-74
2022/09/18 04:53:40;;;;;;;9.88;1.27;;;9.90;99.90;;;;;;5049187;28;20060;-74
2022/09/18 04:56:06;;;;;;;6.82;0.98;;;9.90;99.90;;;;;;5047765;28;20041;-77
2022/09/18 04:58:32;;;;;;;12.30;0.77;;;10.20;99.90;;;;;;5047866;28;20049;-75
2022/09/18 05:00:58;;;;;;;10.73;1.10;;;10.00;99.90;;;;;;5031107;28;20041;-74
2022/09/18 05:03:24;;;;;;;9.93;0.90;;;10.00;99.90;;;;;;5030054;28;20037;-74
2022/09/18 05:05:50;;;;;;;13.52;1.17;;;10.00;99.90;;;;;;5030043;28;20060;-75
2022/09/18 05:08:16;;;;;;;9.48;1.60;;;10.10;99.90;;;;;;5038177;28;20059;-76
2022/09/18 05:10:42;;;;;;;8.77;1.00;;;10.10;99.90;;;;;;5048158;28;20033;-74
2022/09/18 05:13:08;;;;;;;7.35;1.27;;;10.20;99.90;;;;;;5031427;28;20139;-74
2022/09/18 05:15:34;;;;;;;8.48;1.13;;;10.20;99.90;;;;;;5049332;28;20036;-73
2022/09/18 05:18:02;;;;;;;10.13;1.08;;;10.20;99.90;;;;;;5046069;28;20052;-74
2022/09/18 05:20:28;;;;;;;6.63;0.80;;;10.20;99.90;;;;;;5036055;28;20033;-75
2022/09/18 05:22:54;;;;;;;13.35;1.13;;;10.50;99.90;;;;;;5029921;28;20053;-75
2022/09/18 05:25:20;;;;;;;6.63;1.08;;;10.30;99.90;;;;;;5030240;28;20037;-74
2022/09/18 05:27:53;;;;;;;11.02;1.02;;;10.30;99.90;;;;;;5029529;28;20050;-80
2022/09/18 05:30:19;;;;;;;8.77;0.90;;;10.30;99.90;;;;;;5032662;28;20053;-75
2022/09/18 05:33:00;;;;;;;7.25;0.80;;;10.30;99.90;;;;;;5030011;28;20054;-75
2022/09/18 05:35:28;;;;;;;8.30;1.02;;;10.30;99.90;;;;;;5029805;28;20045;-75
2022/09/18 05:37:54;;;;;;;7.60;0.90;;;10.30;99.90;;;;;;5028868;28;20500;-73
2022/09/18 05:40:25;;;;;;;9.82;1.17;;;10.40;99.90;;;;;;5047351;28;20053;-74
2022/09/18 05:42:54;;;;;;;7.35;0.90;;;10.30;99.90;;;;;;5048146;28;20055;-75
2022/09/18 05:45:21;;;;;;;9.82;1.33;;;10.30;99.90;;;;;;5047598;28;20045;-74
2022/09/18 05:47:58;;;;;;;6.57;0.90;;;10.30;99.90;;;;;;5048842;28;20504;-75
2022/09/18 05:50:25;;;;;;;11.50;1.13;;;10.40;99.90;;;;;;5047817;28;20765;-74
2022/09/18 05:53:05;;;;;;;9.43;1.50;;;10.50;99.90;;;;;;5049083;28;20055;-76
2022/09/18 05:55:31;;;;;;;7.38;1.00;;;10.40;99.90;;;;;;5049336;28;20234;-74
2022/09/18 05:57:58;;;;;;;6.22;1.08;;;10.30;99.90;;;;;;5048279;28;20045;-74
2022/09/18 06:00:26;;;;;;;9.48;1.33;;;10.40;99.90;;;;;;5038312;28;20090;-74
2022/09/18 06:02:58;;;;;;;9.63;1.63;;;10.40;99.90;;;;;;5034983;28;20512;-75
2022/09/18 06:05:25;;;;;;;6.50;1.33;;;10.40;99.90;;;;;;5047576;28;20048;-75
2022/09/18 06:07:51;;;;;;;7.43;1.08;;;10.40;99.90;;;;;;5046232;28;20099;-78
2022/09/18 06:10:18;;;;;;;9.45;0.98;;;10.40;99.90;;;;;;5029971;28;20041;-77
2022/09/18 06:12:44;;;;;;;10.23;1.20;;;10.40;99.90;;;;;;5030392;28;20073;-75
2022/09/18 06:15:11;;;;;;;7.47;1.05;;;10.50;99.90;;;;;;5036995;28;20087;-79
2022/09/18 06:17:37;;;;;;;11.70;1.55;;;10.50;99.90;;;;;;5044968;28;20112;-75
2022/09/18 06:20:04;;;;;;;13.73;1.70;;;10.50;99.90;;;;;;5029150;28;20363;-76
2022/09/18 06:22:31;;;;;;;10.15;1.17;;;10.40;99.90;;;;;;5033942;28;20046;-74
2022/09/18 06:24:57;;;;;;;8.68;1.05;;;10.50;99.90;;;;;;5032766;28;20120;-73
2022/09/18 06:27:23;;;;;;;8.10;1.30;;;10.40;99.90;;;;;;5050281;28;20116;-76
2022/09/18 06:29:49;;;;;;;9.20;1.23;;;10.40;99.90;;;;;;5051671;28;20595;-72
2022/09/18 06:32:15;;;;;;;7.90;1.10;;;10.50;99.90;;;;;;5049399;28;20115;-72
2022/09/18 06:34:41;;;;;;;9.80;1.13;;;10.60;99.90;;;;;;5051744;28;20128;-75
2022/09/18 06:37:10;;;;;;;14.00;1.80;;;10.50;99.90;;;;;;5052054;28;20053;-76
2022/09/18 06:39:36;;;;;;;11.18;1.38;;;10.50;99.90;;;;;;5035980;28;20049;-74
2022/09/18 06:42:02;;;;;;;10.20;1.48;;;10.90;99.90;;;;;;5046729;28;20118;-74
2022/09/18 06:44:27;;;;;;;6.78;0.93;;;10.50;99.90;;;;;;5049820;28;20048;-75
2022/09/18 06:46:53;;;;;;;8.43;1.20;;;10.50;99.90;;;;;;5051677;28;20052;-75
2022/09/18 06:49:18;;;;;;;6.38;1.08;;;10.50;99.90;;;;;;5051624;28;20056;-75
2022/09/18 06:51:45;;;;;;;9.65;1.15;;;10.50;99.90;;;;;;5040199;28;20397;-73
2022/09/18 06:54:12;;;;;;;10.40;1.17;;;10.50;99.90;;;;;;5033598;28;20409;-74
2022/09/18 06:56:38;;;;;;;10.23;1.42;;;10.50;99.90;;;;;;5032196;28;20064;-75
2022/09/18 06:59:03;;;;;;;12.85;1.38;;;10.60;99.90;;;;;;5032183;28;20049;-73
2022/09/18 07:01:29;;;;;;;7.00;1.13;;;10.60;99.90;;;;;;5041483;28;20415;-75
2022/09/18 07:03:55;;;;;;;13.18;1.00;;;10.60;99.90;;;;;;5050036;28;20064;-74
2022/09/18 07:06:21;;;;;;;11.93;1.65;;;10.60;99.90;;;;;;5051560;28;20041;-77
2022/09/18 07:08:47;;;;;;;6.82;0.93;;;10.60;99.90;;;;;;5048708;28;20040;-71
2022/09/18 07:11:12;;;;;;;8.23;1.10;;;10.60;99.90;;;;;;5051310;28;20045;-72
2022/09/18 07:13:38;;;;;;;9.27;1.42;;;10.60;99.90;;;;;;5050043;28;20041;-72
2022/09/18 07:16:04;;;;;;;4.72;0.90;;;10.60;99.90;;;;;;5032561;28;20030;-73
2022/09/18 07:18:30;;;;;;;9.88;1.25;;;10.60;99.90;;;;;;5032147;28;20095;-74
2022/09/18 07:20:58;;;;;;;11.45;1.05;;;10.60;99.90;;;;;;5042455;28;20519;-73
2022/09/18 07:23:23;;;;;;;12.77;1.42;;;10.60;99.90;;;;;;5039261;28;20048;-74
2022/09/18 07:25:49;;;;;;;7.10;0.80;;;10.70;99.90;;;;;;5031898;28;20049;-72
2022/09/18 07:28:15;;;;;;;11.55;1.13;;;10.60;99.90;;;;;;5034830;28;20554;-74
2022/09/18 07:30:40;;;;;;;6.55;1.00;;;10.60;99.90;;;;;;5033678;28;20053;-73
2022/09/18 07:33:08;;;;;;;15.43;1.23;;;10.60;99.90;;;;;;5048302;28;20036;-74
2022/09/18 07:35:34;;;;;;;8.57;1.38;;;10.60;99.90;;;;;;5045574;28;20439;-80
2022/09/18 07:38:01;;;;;;;8.15;1.40;;;10.60;99.90;;;;;;5047854;28;20128;-73
2022/09/18 07:40:27;;;;;;;11.20;1.40;;;10.60;99.90;;;;;;5049827;28;20045;-76
2022/09/18 07:43:09;;;;;;;8.00;1.20;;;10.60;99.90;;;;;;5050972;28;20131;-73
2022/09/18 07:45:36;;;;;;;11.70;1.50;;;10.50;99.90;;;;;;5038888;28;20033;-75
2022/09/18 07:48:06;;;;;;;8.45;0.90;;;10.60;99.90;;;;;;5048952;28;20041;-75
2022/09/18 07:50:32;;;;;;;9.90;1.00;;;10.60;99.90;;;;;;5049468;28;20075;-73
2022/09/18 07:53:01;;;;;;;6.10;0.95;;;10.60;99.90;;;;;;5050784;28;20053;-74
2022/09/18 07:55:27;;;;;;;10.85;1.10;;;10.70;99.90;;;;;;5049127;28;20045;-73
2022/09/18 07:57:56;;;;;;;9.20;1.08;;;10.70;99.90;;;;;;5050574;28;20087;-78
2022/09/18 08:00:22;;;;;;;11.77;1.60;;;10.70;99.90;;;;;;5049288;28;20108;-73
2022/09/18 08:02:48;;;;;;;6.32;1.00;;;10.70;99.90;;;;;;5036707;28;20053;-75
2022/09/18 08:05:14;;;;;;;8.65;1.60;;;10.80;99.90;;;;;;5050578;28;20393;-74
2022/09/18 08:07:39;;;;;;;7.40;1.05;;;10.80;99.90;;;;;;5040495;28;20124;-73
2022/09/18 08:10:06;;;;;;;7.85;1.10;;;10.80;99.90;;;;;;5045693;28;20477;-73
2022/09/18 08:12:32;;;;;;;9.48;1.10;;;10.90;99.90;;;;;;5050230;28;20047;-75
2022/09/18 08:14:58;;;;;;;10.98;1.52;;;10.90;99.90;;;;;;5038177;28;20049;-72
2022/09/18 08:17:24;;;;;;;10.43;1.20;;;10.90;99.90;;;;;;5032232;28;20045;-77
2022/09/18 08:19:50;;;;;;;6.95;0.95;;;10.90;99.90;;;;;;5038210;28;20038;-74
2022/09/18 08:22:16;;;;;;;6.57;0.90;;;10.90;99.90;;;;;;5031132;28;20056;-73
2022/09/18 08:24:41;;;;;;;8.30;1.23;;;10.90;99.90;;;;;;5030780;28;20041;-72
2022/09/18 08:27:07;;;;;;;5.35;1.08;;;10.90;99.90;;;;;;5044225;28;20125;-73
2022/09/18 08:29:33;;;;;;;4.55;0.90;;;10.90;99.90;;;;;;5048711;28;20053;-76
2022/09/18 08:31:58;;;;;;;8.15;1.00;;;10.90;99.90;;;;;;5030855;28;20045;-73
2022/09/18 08:34:25;;;;;;;5.40;0.88;;;11.00;99.90;;;;;;5029116;28;20485;-74
2022/09/18 08:36:51;;;;;;;9.23;1.25;;;10.90;99.90;;;;;;5040536;28;20088;-75
2022/09/18 08:39:17;;;;;;;8.05;1.13;;;10.90;99.90;;;;;;5050123;28;20037;-78
2022/09/18 08:41:45;;;;;;;8.27;1.13;;;10.90;99.90;;;;;;5048528;28;20049;-78
2022/09/18 08:44:23;;;;;;;7.38;1.10;;;10.90;99.90;;;;;;5048135;28;20040;-75
2022/09/18 08:47:06;;;;;;;7.72;0.93;;;10.90;99.90;;;;;;5049937;28;20048;-76
2022/09/18 08:50:01;;;;;;;8.43;1.00;;;10.90;99.90;;;;;;5048301;28;20155;-74
2022/09/18 08:52:33;;;;;;;9.45;1.10;;;10.90;99.90;;;;;;5048491;28;20124;-75
2022/09/18 08:55:30;;;;;;;6.53;0.80;;;10.90;99.90;;;;;;5048554;28;20057;-79
2022/09/18 08:58:01;;;;;;;7.97;1.10;;;10.90;99.90;;;;;;5048150;28;20040;-81
2022/09/18 09:00:30;;;;;;;7.95;1.27;;;10.90;99.90;;;;;;5049805;28;20537;-75
2022/09/18 09:03:33;;;;;;;4.75;1.27;;;10.90;99.90;;;;;;5049659;28;20088;-77
2022/09/18 09:06:43;;;;;;;5.65;0.80;;;10.90;99.90;;;;;;5038454;28;20136;-77
2022/09/18 09:09:34;;;;;;;4.60;0.82;;;10.90;99.90;;;;;;5017370;28;20041;-73
2022/09/18 09:12:03;;;;;;;6.25;0.77;;;10.90;99.90;;;;;;5029976;28;20499;-73
2022/09/18 09:14:48;;;;;;;8.63;1.13;;;10.90;99.90;;;;;;5027290;28;20041;-73
2022/09/18 09:17:37;;;;;;;8.98;1.10;;;11.10;99.90;;;;;;5010746;28;20054;-75
2022/09/18 09:20:06;;;;;;;5.35;0.93;;;10.90;99.90;;;;;;5037877;28;20041;-80
2022/09/18 09:22:49;;;;;;;9.27;0.80;;;10.80;99.90;;;;;;5030698;28;20077;-82
2022/09/18 09:25:37;;;;;;;5.63;0.82;;;10.80;99.90;;;;;;5028818;28;20067;-75
2022/09/18 09:28:12;;;;;;;8.68;1.15;;;10.70;99.90;;;;;;5024114;28;20060;-73
2022/09/18 09:30:40;;;;;;;10.52;0.93;;;10.70;99.90;;;;;;5030085;28;20382;-76
2022/09/18 09:33:20;;;;;;;10.30;1.23;;;10.80;99.90;;;;;;5029945;28;20053;-80
2022/09/18 09:35:51;;;;;;;8.98;1.08;;;10.70;99.90;;;;;;5029873;28;20053;-77
2022/09/18 09:38:45;;;;;;;11.93;1.35;;;10.60;99.90;;;;;;5037998;28;20045;-77
2022/09/18 09:41:27;;;;;;;8.95;1.17;;;10.60;99.90;;;;;;5020109;28;20432;-73
2022/09/18 09:43:59;;;;;;;7.53;0.95;;;10.90;99.90;;;;;;5029505;28;20690;-78
2022/09/18 09:46:49;;;;;;;7.45;1.17;;;10.60;99.90;;;;;;5029750;28;20038;-81
2022/09/18 09:49:23;;;;;;;7.57;1.00;;;10.60;99.90;;;;;;5040588;28;20054;-75
2022/09/18 09:52:07;;;;;;;5.28;0.90;;;10.60;99.90;;;;;;5048477;28;20055;-75
2022/09/18 09:54:33;;;;;;;10.70;1.38;;;10.70;99.90;;;;;;5030875;28;20045;-79
2022/09/18 09:57:18;;;;;;;9.00;1.25;;;10.70;99.90;;;;;;5012631;28;20052;-74
2022/09/18 10:00:06;;;;;;;9.48;1.00;;;10.70;99.90;;;;;;5022502;28;20056;-85
2022/09/18 10:02:55;;;;;;;13.73;1.20;;;10.80;99.90;;;;;;5049368;28;20405;-84
2022/09/18 10:05:41;;;;;;;5.25;1.17;;;10.70;99.90;;;;;;5029016;28;20053;-77
2022/09/18 10:08:21;;;;;;;10.27;1.27;;;10.70;99.90;;;;;;5018370;28;20053;-80
2022/09/18 10:10:53;;;;;;;7.95;1.35;;;10.80;99.90;;;;;;4992025;28;20100;-73
2022/09/18 10:13:43;;;;;;;4.93;1.05;;;10.80;99.90;;;;;;5008916;28;20041;-74
2022/09/18 10:16:18;;;;;;;8.65;1.40;;;10.90;99.90;;;;;;5011314;28;20050;-78
2022/09/18 10:18:46;;;;;;;6.05;1.10;;;11.10;99.90;;;;;;5011000;28;20038;-80
2022/09/18 10:21:17;;;;;;;8.63;1.40;;;10.90;99.90;;;;;;5012246;28;20046;-76
2022/09/18 10:24:11;;;;;;;10.20;1.30;;;11.00;99.90;;;;;;5025003;28;20115;-80
2022/09/18 10:26:43;;;;;;;11.57;1.30;;;11.00;99.90;;;;;;5012277;28;20510;-78
2022/09/18 10:29:09;;;;;;;13.00;1.75;;;11.10;99.90;;;;;;4994234;28;20137;-75
2022/09/18 10:31:48;;;;;;;12.02;1.75;;;11.10;99.90;;;;;;5012030;28;20048;-74
2022/09/18 10:34:39;;;;;;;10.82;1.80;;;11.10;99.90;;;;;;5027261;28;20051;-73
2022/09/18 10:37:12;;;;;;;10.13;1.55;;;11.20;99.90;;;;;;5029929;28;20057;-74
2022/09/18 10:39:47;;;;;;;8.07;1.30;;;11.20;99.90;;;;;;5029382;28;20528;-74
2022/09/18 10:42:17;;;;;;;11.68;1.35;;;11.60;99.90;;;;;;5037610;28;20061;-75
2022/09/18 10:44:52;;;;;;;7.88;1.05;;;11.50;99.90;;;;;;5029373;28;20037;-81
2022/09/18 10:47:30;;;;;;;9.60;1.58;;;11.40;99.90;;;;;;5051438;28;20063;-75
2022/09/18 10:50:05;;;;;;;15.15;2.25;;;11.50;99.90;;;;;;5031697;28;20087;-74
2022/09/18 10:52:36;;;;;;;13.68;1.35;;;11.60;99.90;;;;;;5013059;28;20095;-75
2022/09/18 10:55:06;;;;;;;11.27;1.17;;;11.60;99.90;;;;;;5014425;28;20049;-73
2022/09/18 10:58:00;;;;;;;13.50;1.50;;;11.60;99.90;;;;;;5032893;28;20045;-74
2022/09/18 11:00:28;;;;;;;13.68;1.73;;;11.70;99.90;;;;;;5013004;28;20104;-73
2022/09/18 11:03:03;;;;;;;13.05;1.80;;;11.80;99.90;;;;;;5023497;28;20055;-79
2022/09/18 11:05:33;;;;;;;11.13;1.58;;;11.90;99.90;;;;;;5032185;28;20444;-74
2022/09/18 11:08:03;;;;;;;19.67;1.83;;;12.10;99.90;;;;;;5032716;28;20045;-74
2022/09/18 11:10:36;;;;;;;12.55;1.70;;;12.00;99.90;;;;;;5051201;28;20063;-77
2022/09/18 11:13:02;;;;;;;13.60;1.70;;;12.10;99.90;;;;;;5049723;28;20055;-76
2022/09/18 11:15:31;;;;;;;12.50;1.75;;;12.10;99.90;;;;;;5044555;28;20042;-78
2022/09/18 11:18:00;;;;;;;14.35;1.75;;;12.20;99.90;;;;;;5035253;28;20049;-79
2022/09/18 11:20:46;;;;;;;10.68;1.50;;;12.20;99.90;;;;;;5032162;28;20068;-76
2022/09/18 11:23:18;;;;;;;11.07;1.58;;;12.30;99.90;;;;;;5031835;28;20114;-78
2022/09/18 11:25:47;;;;;;;7.85;1.45;;;12.40;99.90;;;;;;5034668;28;20037;-77
2022/09/18 11:28:28;;;;;;;14.40;1.50;;;12.40;99.90;;;;;;5032104;28;20092;-75
2022/09/18 11:31:00;;;;;;;20.85;2.20;;;12.50;99.90;;;;;;5031093;28;20148;-80
2022/09/18 11:33:49;;;;;;;12.18;2.08;;;12.60;99.90;;;;;;5032400;28;20412;-76
2022/09/18 11:36:23;;;;;;;10.98;1.95;;;12.60;99.90;;;;;;5050933;28;20049;-77
2022/09/18 11:38:49;;;;;;;14.13;2.22;;;12.70;99.90;;;;;;5046255;28;20037;-75
2022/09/18 11:41:37;;;;;;;10.30;1.95;;;13.00;99.90;;;;;;5029010;28;20421;-77
2022/09/18 11:44:04;;;;;;;9.40;1.73;;;12.90;99.90;;;;;;5013489;28;20404;-74
2022/09/18 11:46:54;;;;;;;12.40;1.45;;;13.00;99.90;;;;;;5031282;28;20556;-75
2022/09/18 11:49:43;;;;;;;11.07;1.65;;;12.90;99.90;;;;;;5031804;28;20416;-76
2022/09/18 11:52:15;;;;;;;14.35;1.67;;;13.00;99.90;;;;;;5032691;28;20053;-74
2022/09/18 11:54:50;;;;;;;13.88;2.53;;;13.00;99.90;;;;;;5030181;28;20541;-75
2022/09/18 11:57:19;;;;;;;;;;;13.40;99.90;;;;;;5032655;28;20041;-77
2022/09/18 11:59:59;;;;;;;13.73;1.45;;;13.20;99.90;;;;;;5040059;28;19953;-77
2022/09/18 12:02:33;;;;;;;12.65;1.52;;;13.20;99.90;;;;;;5051394;28;20086;-77
2022/09/18 12:05:17;;;;;;;12.40;1.50;;;13.30;99.90;;;;;;5035880;28;20128;-81
2022/09/18 12:07:52;;;;;;;11.63;1.75;;;13.40;99.90;;;;;;5030785;28;20091;-81
2022/09/18 12:10:26;;;;;;;8.05;1.20;;;13.40;99.90;;;;;;5029215;28;20053;-79
2022/09/18 12:13:29;;;;;;;8.63;1.33;;;13.40;99.90;;;;;;5030972;28;20053;-80
2022/09/18 12:16:04;;;;;;;6.25;1.25;;;13.40;99.90;;;;;;5030939;28;20045;-79
2022/09/18 12:18:45;;;;;;;11.68;1.27;;;13.40;99.90;;;;;;5030473;28;20049;-79
2022/09/18 12:21:14;;;;;;;10.05;1.27;;;13.30;99.90;;;;;;5030987;28;20049;-79
2022/09/18 12:23:41;;;;;;;8.52;1.13;;;13.50;99.90;;;;;;5030930;28;20049;-78
2022/09/18 12:26:16;;;;;;;9.25;1.13;;;13.40;99.90;;;;;;5030990;28;20033;-82
2022/09/18 12:29:04;;;;;;;7.85;0.90;;;13.50;99.90;;;;;;5029089;28;20587;-78
2022/09/18 12:32:04;;;;;;;12.43;1.45;;;13.40;99.90;;;;;;5031088;28;20475;-77
2022/09/18 12:34:58;;;;;;;5.22;1.33;;;13.50;99.90;;;;;;5029966;28;20053;-80
2022/09/18 12:37:39;;;;;;;7.13;1.10;;;13.40;99.90;;;;;;5031120;28;20048;-81
2022/09/18 12:40:19;;;;;;;7.00;0.90;;;13.40;99.90;;;;;;5031218;28;20441;-79
2022/09/18 12:43:01;;;;;;;10.38;1.58;;;13.40;99.90;;;;;;5029420;28;20550;-79
2022/09/18 12:45:30;;;;;;;8.80;1.05;;;13.50;99.90;;;;;;5030506;28;20401;-79
2022/09/18 12:48:07;;;;;;;12.43;1.10;;;13.40;99.90;;;;;;5030620;28;20447;-82
2022/09/18 12:51:10;;;;;;;8.73;1.42;;;13.40;99.90;;;;;;5030924;28;20045;-80
2022/09/18 12:54:09;;;;;;;9.73;2.15;;;13.50;99.90;;;;;;5030773;28;20056;-78
2022/09/18 12:56:41;;;;;;;10.05;0.90;;;13.50;99.90;;;;;;5030997;28;20052;-80
2022/09/18 12:59:25;;;;;;;8.40;1.27;;;13.80;99.90;;;;;;5030316;28;20045;-81
2022/09/18 13:02:00;;;;;;;8.25;1.00;;;13.60;99.90;;;;;;5029553;28;20516;-78
2022/09/18 13:05:00;;;;;;;15.68;1.77;;;13.50;99.90;;;;;;5030428;28;20427;-80
2022/09/18 13:07:34;;;;;;;6.65;1.10;;;13.50;99.90;;;;;;5007911;28;20432;-80
2022/09/18 13:10:20;;;;;;;7.40;1.10;;;13.40;99.90;;;;;;5008002;28;20053;-80
2022/09/18 13:13:04;;;;;;;9.38;0.90;;;13.40;99.90;;;;;;5008113;28;20064;-84